createdAt,value
2018-09-27T00:02:39.674Z,13.4
2018-09-27T00:12:38.887Z,13.3
2018-09-27T00:22:38.109Z,13.2
2018-09-27T00:32:37.329Z,13.2
2018-09-27T00:42:36.544Z,13.1
2018-09-27T00:52:35.765Z,13
2018-09-27T01:02:34.984Z,12.9
2018-09-27T01:12:34.201Z,12.9
2018-09-27T01:22:33.418Z,12.8
2018-09-27T01:32:32.643Z,12.7
2018-09-27T01:42:31.907Z,12.6
2018-09-27T01:52:31.071Z,12.6
2018-09-27T02:02:30.291Z,12.5
2018-09-27T02:12:29.501Z,12.4
2018-09-27T02:22:28.720Z,12.4
2018-09-27T02:32:27.944Z,12.4
2018-09-27T02:42:27.159Z,12.6
2018-09-27T02:52:26.379Z,12.8
2018-09-27T03:02:25.593Z,13.5
2018-09-27T03:12:24.811Z,13.9
2018-09-27T03:22:24.029Z,14.3
2018-09-27T03:32:23.246Z,14.8
2018-09-27T03:42:22.465Z,14.4
2018-09-27T03:52:21.690Z,13.9
2018-09-27T04:02:20.902Z,14.2
2018-09-27T04:12:20.121Z,14.6
2018-09-27T04:22:19.344Z,14.6
2018-09-27T04:32:18.561Z,13.8
2018-09-27T04:42:17.775Z,13.3
2018-09-27T04:52:17.000Z,13.1
2018-09-27T05:02:16.218Z,12.9
2018-09-27T05:12:15.437Z,13.1
2018-09-27T05:22:14.651Z,13.6
2018-09-27T05:32:13.875Z,14.1
2018-09-27T05:42:13.089Z,14.8
2018-09-27T05:52:12.307Z,15.6
2018-09-27T06:02:11.525Z,16.3
2018-09-27T06:12:10.749Z,16.8
2018-09-27T06:22:09.970Z,17.4
2018-09-27T06:32:09.184Z,18
2018-09-27T06:42:08.400Z,18.3
2018-09-27T06:52:07.668Z,19.1
2018-09-27T07:02:06.836Z,19.8
2018-09-27T07:12:06.143Z,20.4
2018-09-27T07:22:05.273Z,20.6
2018-09-27T07:32:04.489Z,20.3
2018-09-27T07:42:03.706Z,20.1
2018-09-27T07:52:02.924Z,19.6
2018-09-27T08:02:02.137Z,19.4
2018-09-27T08:12:01.541Z,19.1
2018-09-27T08:22:00.573Z,18.9
2018-09-27T08:31:59.790Z,18.9
2018-09-27T08:41:59.014Z,19.2
2018-09-27T08:51:58.232Z,19.1
2018-09-27T09:01:57.449Z,19.1
2018-09-27T09:11:56.701Z,18.5
2018-09-27T09:21:55.884Z,19
2018-09-27T09:31:55.097Z,18.8
2018-09-27T09:41:54.314Z,19.1
2018-09-27T09:51:53.535Z,19.1
2018-09-27T10:01:52.752Z,19.1
2018-09-27T10:11:51.968Z,19.3
2018-09-27T10:21:51.416Z,19.5
2018-09-27T10:31:50.402Z,19.6
2018-09-27T10:41:49.617Z,19.8
2018-09-27T10:51:48.828Z,19.9
2018-09-27T11:01:48.055Z,19.8
2018-09-27T11:11:47.270Z,19.3
2018-09-27T11:21:46.482Z,18.6
2018-09-27T11:31:45.703Z,18.3
2018-09-27T11:41:44.911Z,17.9
2018-09-27T11:51:44.126Z,17.7
2018-09-27T12:01:43.416Z,17.9
2018-09-27T12:11:42.563Z,17.8
2018-09-27T12:21:41.828Z,17.8
2018-09-27T12:31:46.077Z,17.9
2018-09-27T12:41:40.226Z,18.2
2018-09-27T12:51:39.638Z,18.6
2018-09-27T13:01:38.741Z,18.6
2018-09-27T13:11:40.643Z,18.6
2018-09-27T13:21:37.109Z,18.8
2018-09-27T13:31:36.294Z,18.3
2018-09-27T13:41:35.524Z,18.3
2018-09-27T13:51:34.736Z,18.5
2018-09-27T14:01:33.947Z,18.6
2018-09-27T14:11:33.170Z,18.4
2018-09-27T14:21:32.377Z,18.3
2018-09-27T14:31:31.599Z,18.2
2018-09-27T14:41:30.858Z,18.4
2018-09-27T14:51:30.029Z,18.6
2018-09-27T15:01:29.245Z,18.6
2018-09-27T15:11:28.459Z,18.6
2018-09-27T15:21:27.677Z,18.4
2018-09-27T15:31:26.899Z,18.5
2018-09-27T15:41:26.162Z,18.6
2018-09-27T15:51:25.390Z,18.6
2018-09-27T16:01:24.598Z,18.6
2018-09-27T16:11:23.769Z,18.6
2018-09-27T16:21:22.981Z,18.6
2018-09-27T16:31:22.198Z,18.2
2018-09-27T16:41:21.412Z,18.3
2018-09-27T16:51:20.631Z,18.3
2018-09-27T17:01:19.843Z,18.3
2018-09-27T17:11:19.061Z,18
2018-09-27T17:21:18.278Z,18.2
2018-09-27T17:31:17.553Z,18.6
2018-09-27T17:41:16.712Z,18.9
2018-09-27T17:51:15.929Z,19.2
2018-09-27T18:01:15.151Z,19.4
2018-09-27T18:11:14.366Z,19.6
2018-09-27T18:31:12.831Z,19.9
2018-09-27T18:41:12.038Z,20
2018-09-27T18:51:11.245Z,20.1
2018-09-27T19:01:10.458Z,20.2
2018-09-27T19:11:09.740Z,20.3
2018-09-27T19:21:08.892Z,20.3
2018-09-27T19:31:08.126Z,20.7
2018-09-27T19:41:07.329Z,22.6
2018-09-27T19:51:06.552Z,23.4
2018-09-27T20:01:05.765Z,23
2018-09-27T20:11:04.985Z,22.6
2018-09-27T20:21:04.205Z,22.7
2018-09-27T20:31:03.424Z,22.9
2018-09-27T20:41:02.643Z,22.6
2018-09-27T20:51:01.862Z,22.6
2018-09-27T21:01:01.084Z,22.8
2018-09-27T21:11:00.305Z,22.5
2018-09-27T21:20:59.521Z,22.8
2018-09-27T21:30:58.744Z,22.6
2018-09-27T21:40:57.958Z,22.8
2018-09-27T21:50:57.190Z,22.6
2018-09-27T22:00:56.408Z,22.8
2018-09-27T22:10:55.622Z,22.7
2018-09-27T22:20:54.841Z,22.9
2018-09-27T22:30:54.059Z,22.9
2018-09-27T22:40:53.276Z,22.5
2018-09-27T22:50:52.495Z,22.8
2018-09-27T23:00:51.715Z,22.5
2018-09-27T23:10:50.929Z,22.7
2018-09-27T23:20:50.141Z,22.8
2018-09-27T23:30:49.347Z,22.4
2018-09-27T23:40:48.566Z,22.7
2018-09-27T23:50:47.782Z,22.4
